North East, MD (21901)

6:44 AM EDT on March 27, 2015 (GMT -0400)
Fairway Villages | | Change Station
CLOSE
Current Station
Personal Weather Station
Location: North East, MD
Elevation: 151 ft
Nearby Weather Stations

Elev 151 ft 39.58 °N, 75.93 °W | Updated 46 seconds ago

Rain
Rain
39.2 °F
Feels Like 39 °F
N
0.0
Wind Variable Wind from NE
Gusts 0.0 mph

Today
High -- | Low -- °F
--% Chance of Precip.
Yesterday
High -- | Low -- °F
Precip. -- in
6:56 AM 7:22 PM
Waxing Crescent, 51% visible
Pressure 29.81 in
Visibility 5.0 miles
Clouds Mostly Cloudy 1200 ft
Overcast 3000 ft
Windchill 39 °F
Dew Point 38 °F
Humidity 94%
Rainfall 0.36 in
Snow Depth Not available.
UV 0 out of 12
Pollen 5.80 out of 12
Air Quality Not available.
Flu Activity Not available.
METAR KAPG 270950Z 33008KT 5SM -RA BR BKN012 OVC030 04/02 A2981

More Conditions Fewer Conditions

Pressure 29.81 in
Visibility 5.0 miles
Clouds Mostly Cloudy 1200 ft
Overcast 3000 ft
Windchill 39 °F
Dew Point 38 °F
Humidity 94%
Rainfall 0.36 in
Snow Depth Not available.
UV 0 out of 12
Pollen 5.80 out of 12
Air Quality Not available.
Flu Activity Not available.
METAR KAPG 270950Z 33008KT 5SM -RA BR BKN012 OVC030 04/02 A2981

More Conditions Fewer Conditions

Nowcast | as of 6:04 am EDT on March 27, 2015

Between now and 600 am, light rain will continue to fall in northeastern Maryland, northern Delaware, souheastern Pennsylvania, and southwestern and central New Jersey. Additional rainfall is expected to be a few hundredths of an inch.

×

10-Day Weather Forecast

Almanac

Astronomy

Mar. 27, 2015 Rise Set
Actual Time
Civil Twilight
Nautical Twilight
Astronomical Twilight
Moon
Length of Visible Light
Length of Day
Tomorrow will be .
, % of the Moon is Illuminated

Today's Extremes

State Highs State Lows

Community

WunderPhotos

Upload Photos

1,808,706 photos uploaded!

WunderBlogs® & News

Nearby

Air Quality

  Air Quality AQ Index Pollutant
Not available.

Snow Depth

Station Depth Elevation

Earthquake Activity

City Distance Mag. Time & Date
Minimum magnitude displayed is 2.5.

Coastal Water Temperatures

Place Temperature

Stations

Nearby Weather Stations

Station Location Temp. Windchill Dew Point Humidity Wind Precip. Elev Updated Type